createdAt,value
2022-09-16T00:03:01.430Z,79.4
2022-09-16T00:08:52.405Z,80.3
2022-09-16T00:14:43.646Z,80.7
2022-09-16T00:20:34.453Z,81.2
2022-09-16T00:26:27.645Z,82.3
2022-09-16T00:32:18.814Z,82.2
2022-09-16T00:38:08.180Z,82.9
2022-09-16T00:43:57.548Z,83.5
2022-09-16T00:49:47.619Z,83.9
2022-09-16T00:55:37.071Z,83.7
2022-09-16T01:01:25.998Z,83.2
2022-09-16T01:07:16.078Z,82.8
2022-09-16T01:13:06.557Z,82.6
2022-09-16T01:18:57.010Z,81.8
2022-09-16T01:24:47.359Z,80.9
2022-09-16T01:30:37.690Z,81.4
2022-09-16T01:36:28.394Z,81
2022-09-16T01:42:19.184Z,81.6
2022-09-16T01:48:09.427Z,81.7
2022-09-16T01:54:00.326Z,81.9
2022-09-16T01:59:50.803Z,82.9
2022-09-16T02:05:40.779Z,83.8
2022-09-16T02:11:31.621Z,84.8
2022-09-16T02:17:20.989Z,85.1
2022-09-16T02:23:10.117Z,85.7
2022-09-16T02:28:59.089Z,85.2
2022-09-16T02:34:48.014Z,86.7
2022-09-16T02:40:38.417Z,87.5
2022-09-16T02:46:29.305Z,88.1
2022-09-16T02:52:21.074Z,88.4
2022-09-16T02:58:12.137Z,88.8
2022-09-16T03:04:02.961Z,89.7
2022-09-16T03:09:52.267Z,89.8
2022-09-16T03:15:43.769Z,90.4
2022-09-16T03:21:35.451Z,90.1
2022-09-16T03:27:25.730Z,90.7
2022-09-16T03:33:16.315Z,91.2
2022-09-16T03:39:08.350Z,91
2022-09-16T03:44:58.802Z,91
2022-09-16T03:50:49.611Z,90.8
2022-09-16T03:56:39.100Z,90.7
2022-09-16T04:02:27.855Z,89.4
2022-09-16T04:08:16.647Z,89.2
2022-09-16T04:14:05.768Z,89.7
2022-09-16T04:19:55.099Z,89.1
2022-09-16T04:25:46.196Z,88.7
2022-09-16T04:31:36.724Z,88.5
2022-09-16T04:37:26.389Z,88.7
2022-09-16T04:43:18.590Z,88.2
2022-09-16T04:49:08.671Z,88.5
2022-09-16T04:55:00.222Z,88.7
2022-09-16T05:00:50.831Z,88.9
2022-09-16T05:06:41.812Z,89.3
2022-09-16T05:12:32.364Z,89.1
2022-09-16T05:18:22.197Z,88.5
2022-09-16T05:24:12.802Z,88.5
2022-09-16T05:30:04.197Z,88.2
2022-09-16T05:35:55.609Z,88
2022-09-16T05:41:46.972Z,87.8
2022-09-16T05:47:39.709Z,87.9
2022-09-16T05:53:30.538Z,86.7
2022-09-16T05:59:22.008Z,87.2
2022-09-16T06:05:14.548Z,86.9
2022-09-16T06:11:05.437Z,85
2022-09-16T06:16:56.232Z,84.5
2022-09-16T06:22:46.555Z,84.7
2022-09-16T06:28:40.954Z,84.2
2022-09-16T06:34:33.004Z,84.3
2022-09-16T06:40:24.118Z,83.1
2022-09-16T06:46:17.033Z,83.7
2022-09-16T06:52:08.396Z,82.7
2022-09-16T06:57:59.447Z,82.1
2022-09-16T07:03:51.968Z,81.4
2022-09-16T07:09:44.292Z,81.5
2022-09-16T07:15:46.256Z,81.2
2022-09-16T07:22:00.572Z,80.2
2022-09-16T07:27:57.976Z,79.9
2022-09-16T07:33:53.895Z,80.5
2022-09-16T07:39:51.823Z,79.7
2022-09-16T07:45:43.580Z,80.3
2022-09-16T07:51:36.042Z,80.8
2022-09-16T07:57:27.742Z,80.1
2022-09-16T08:03:20.750Z,79.7
2022-09-16T08:09:42.608Z,79.4
2022-09-16T08:15:49.635Z,78.9
2022-09-16T08:27:59.733Z,79.1
2022-09-16T08:33:51.071Z,79.4
2022-09-16T08:39:41.538Z,77.8
2022-09-16T08:45:35.198Z,76.6
2022-09-16T08:51:40.765Z,76.4
2022-09-16T08:57:30.689Z,77
2022-09-16T09:03:24.971Z,76.6
2022-09-16T09:09:24.148Z,76.3
2022-09-16T09:15:23.831Z,75.7
2022-09-16T09:21:35.175Z,75.5
2022-09-16T09:27:24.078Z,73.5
2022-09-16T09:33:46.394Z,72.5
2022-09-16T09:39:37.210Z,70.3
2022-09-16T09:45:40.169Z,66.5
2022-09-16T09:51:30.983Z,67.8
2022-09-16T09:57:33.317Z,67.6
2022-09-16T10:03:24.406Z,68.2
2022-09-16T10:09:32.190Z,64.1
2022-09-16T10:15:26.685Z,65.5
2022-09-16T10:21:16.831Z,64.5
2022-09-16T10:27:08.831Z,65.4
2022-09-16T10:33:00.191Z,61.8
2022-09-16T10:38:52.183Z,63.1
2022-09-16T10:44:51.562Z,63.6
2022-09-16T10:50:49.912Z,63.3
2022-09-16T11:26:33.832Z,61.2
2022-09-16T11:38:46.197Z,60.9
2022-09-16T12:09:49.340Z,59.3
2022-09-16T12:29:09.989Z,55.4
2022-09-16T17:23:56.450Z,82
2022-09-16T17:29:51.784Z,82.3
2022-09-16T18:05:14.460Z,81.2
2022-09-16T19:28:18.590Z,87
2022-09-16T22:21:48.991Z,92.6
2022-09-16T22:28:03.112Z,93.1
2022-09-16T22:34:10.444Z,93.1
2022-09-16T22:40:06.976Z,92.5
2022-09-16T22:46:00.033Z,92.5
2022-09-16T22:58:36.527Z,91.3
2022-09-16T23:04:30.126Z,90.8
2022-09-16T23:10:36.184Z,90.9
2022-09-16T23:16:34.331Z,90.9
2022-09-16T23:22:35.895Z,90.7
2022-09-16T23:28:27.666Z,90.3
2022-09-16T23:34:33.003Z,90.9
2022-09-16T23:40:36.498Z,90.9
2022-09-16T23:46:27.090Z,91
2022-09-16T23:52:18.357Z,90.9
2022-09-16T23:58:08.978Z,90.9
